Pella, IA

2:24 AM CST on January 24, 2017 (GMT -0600)
Pella Municipal

Weather History for KPEA - October, 2012

Change the Weather History Date:

Sunday, October 7, 2012

  Actual Average (KOXV) Record (KOXV)
Temperature  
Mean Temperature 41 °F -  
Max Temperature 55 °F 68 °F 88 °F (1949)
Min Temperature 27 °F 43 °F 24 °F (1952)
Degree Days  
Heating Degree Days 24    
Moisture  
Dew Point 22 °F    
Average Humidity 52    
Maximum Humidity 82    
Minimum Humidity 24    
Precipitation  
Precipitation 0.00 in - - ()
Sea Level Pressure  
Sea Level Pressure 30.20 in    
Wind  
Wind Speed 5 mph (WSW)    
Max Wind Speed 9 mph    
Max Gust Speed 16 mph    
Visibility 10 miles    
Events      
Averages and records for this station are not official NWS values.
T = Trace of Precipitation, MM = Missing Value Source: NWS Daily Summary

Daily Weather History Graph

Daily Weather History Graph

Search for Another Location

Airport or City:

Trip Planner

Search our weather history database for the weather conditions in past years. The results will help you decide how hot, cold, wet, or windy it might be!

Date:

Astronomy

Oct. 07, 2012 Rise Set
Actual Time 7:15 AM CDT 6:42 PM CDT
Civil Twilight 6:47 AM CDT 7:10 PM CDT
Nautical Twilight 6:15 AM CDT 7:42 PM CDT
Astronomical Twilight 5:43 AM CDT 8:14 PM CDT
Moon 11:52 PM CDT (10/7) 1:55 PM CDT (10/7)
Length of Visible Light 12h 22m
Length of Day
11h 27m
Waning Gibbous, 56% of the Moon is Illuminated
Oct 7
Waning Gibbous
Oct 8
Last Quarter
Oct 15
New
Oct 21
First Quarter
Oct 29
Full

Hourly Weather History & Observations

Time (CDT) Temp. Windchill Dew Point Humidity Pressure Visibility Wind Dir Wind Speed Gust Speed Precip Events Conditions
12:15 AM 37.4 °F 32.8 °F 26.1 °F 64% 30.28 in 10.0 mi WNW 5.8 mph - N/A   Clear
12:35 AM 37.0 °F 31.6 °F 25.7 °F 64% 30.27 in 10.0 mi WNW 6.9 mph - N/A   Clear
12:55 AM 36.9 °F 32.2 °F 25.5 °F 64% 30.27 in 10.0 mi WNW 5.8 mph - N/A   Clear
1:15 AM 36.5 °F 32.7 °F 25.3 °F 64% 30.27 in 10.0 mi WNW 4.6 mph - N/A   Clear
1:35 AM 35.6 °F 31.7 °F 25.2 °F 66% 30.27 in 10.0 mi WNW 4.6 mph - N/A   Clear
1:55 AM 35.6 °F 31.7 °F 24.8 °F 65% 30.27 in 10.0 mi WNW 4.6 mph - N/A   Clear
2:15 AM 34.3 °F 29.2 °F 24.4 °F 67% 30.27 in 10.0 mi WNW 5.8 mph - N/A   Clear
2:35 AM 33.4 °F 29.1 °F 23.7 °F 68% 30.27 in 10.0 mi NW 4.6 mph - N/A   Clear
2:55 AM 32.2 °F 27.7 °F 23.0 °F 69% 30.27 in 10.0 mi WNW 4.6 mph - N/A   Clear
3:15 AM 32.0 °F 26.4 °F 22.8 °F 69% 30.26 in 10.0 mi WNW 5.8 mph - N/A   Clear
3:35 AM 32.0 °F 26.4 °F 22.8 °F 69% 30.26 in 10.0 mi WNW 5.8 mph - N/A   Clear
3:55 AM 31.1 °F 26.4 °F 22.6 °F 71% 30.26 in 10.0 mi WNW 4.6 mph - N/A   Clear
4:15 AM 30.2 °F 25.4 °F 22.6 °F 73% 30.26 in 10.0 mi WNW 4.6 mph - N/A   Clear
4:35 AM 30.0 °F 26.5 °F 22.8 °F 75% 30.26 in 10.0 mi WNW 3.5 mph - N/A   Clear
4:55 AM 28.9 °F 23.9 °F 22.6 °F 77% 30.26 in 10.0 mi West 4.6 mph - N/A   Clear
5:15 AM 28.0 °F 21.7 °F 22.3 °F 79% 30.26 in 10.0 mi WNW 5.8 mph - N/A   Clear
5:35 AM 28.4 °F 23.3 °F 23.0 °F 80% 30.25 in 10.0 mi WNW 4.6 mph - N/A   Clear
5:55 AM 27.7 °F 23.8 °F 22.3 °F 80% 30.26 in 10.0 mi WSW 3.5 mph - N/A   Clear
6:15 AM 27.5 °F 21.1 °F 22.6 °F 82% 30.26 in 10.0 mi West 5.8 mph - N/A   Clear
6:35 AM 28.9 °F 22.8 °F 23.2 °F 79% 30.26 in 10.0 mi West 5.8 mph - N/A   Clear
6:55 AM 28.6 °F 23.5 °F 23.0 °F 80% 30.26 in 10.0 mi West 4.6 mph - N/A   Clear
7:15 AM 28.8 °F 25.0 °F 23.2 °F 80% 30.26 in 10.0 mi WNW 3.5 mph - N/A   Clear
7:35 AM 28.4 °F 23.3 °F 23.5 °F 82% 30.26 in 10.0 mi WNW 4.6 mph - N/A   Clear
7:55 AM 28.8 °F 23.7 °F 23.5 °F 81% 30.26 in 10.0 mi WNW 4.6 mph - N/A   Clear
8:15 AM 31.1 °F 26.4 °F 24.6 °F 77% 30.26 in 10.0 mi WNW 4.6 mph - N/A   Clear
8:35 AM 32.2 °F 26.7 °F 25.5 °F 76% 30.28 in 10.0 mi West 5.8 mph - N/A   Clear
8:55 AM 34.0 °F 28.8 °F 25.5 °F 71% 30.28 in 10.0 mi West 5.8 mph - N/A   Clear
9:15 AM 35.8 °F 33.0 °F 25.2 °F 65% 30.27 in 10.0 mi NNW 3.5 mph - N/A   Clear
9:35 AM 38.1 °F - 25.5 °F 61% 30.28 in 10.0 mi Calm Calm - N/A   Clear
9:55 AM 41.2 °F 39.2 °F 25.7 °F 54% 30.29 in 10.0 mi SW 3.5 mph - N/A   Clear
10:15 AM 42.3 °F 38.6 °F 26.8 °F 54% 30.28 in 10.0 mi SW 5.8 mph - N/A   Clear
10:35 AM 42.8 °F 38.0 °F 27.0 °F 54% 30.28 in 10.0 mi West 8.1 mph - N/A   Clear
10:55 AM 44.2 °F 41.8 °F 25.5 °F 48% 30.27 in 10.0 mi SW 4.6 mph - N/A   Clear
11:15 AM 44.8 °F 41.6 °F 24.4 °F 45% 30.27 in 10.0 mi West 5.8 mph - N/A   Clear
11:35 AM 45.7 °F 41.5 °F 24.6 °F 44% 30.27 in 10.0 mi WSW 8.1 mph - N/A   Clear
11:55 AM 46.8 °F - 23.9 °F 41% 30.26 in 10.0 mi SW 8.1 mph - N/A   Clear
12:15 PM 47.5 °F - 24.1 °F 40% 30.25 in 10.0 mi SW 8.1 mph - N/A   Clear
12:35 PM 47.8 °F - 22.6 °F 37% 30.24 in 10.0 mi WSW 6.9 mph - N/A   Clear
12:55 PM 48.7 °F - 23.5 °F 37% 30.23 in 10.0 mi SW 6.9 mph - N/A   Clear
1:15 PM 49.8 °F - 21.7 °F 33% 30.22 in 10.0 mi West 5.8 mph - N/A   Clear
1:35 PM 50.4 °F - 20.8 °F 31% 30.21 in 10.0 mi West 8.1 mph - N/A   Clear
1:55 PM 51.6 °F - 19.4 °F 28% 30.20 in 10.0 mi West 9.2 mph 16.1 mph N/A   Clear
2:15 PM 52.2 °F - 18.9 °F 27% 30.18 in 10.0 mi WSW 8.1 mph - N/A   Clear
2:35 PM 52.9 °F - 18.1 °F 26% 30.18 in 10.0 mi WSW 4.6 mph - N/A   Clear
2:55 PM 53.4 °F - 18.0 °F 25% 30.16 in 10.0 mi West 5.8 mph - N/A   Clear
3:15 PM 54.7 °F - 18.5 °F 24% 30.15 in 10.0 mi West 4.6 mph - N/A   Clear
3:35 PM 54.5 °F - 18.9 °F 25% 30.14 in 10.0 mi West 4.6 mph - N/A   Clear
3:55 PM 54.9 °F - 19.4 °F 25% 30.13 in 10.0 mi West 5.8 mph 16.1 mph N/A   Clear
4:15 PM 55.2 °F - 19.2 °F 25% 30.13 in 10.0 mi WNW 5.8 mph - N/A   Clear
4:35 PM 55.6 °F - 19.0 °F 24% 30.12 in 10.0 mi WSW 9.2 mph - N/A   Clear
4:55 PM 55.0 °F - 19.8 °F 25% 30.11 in 10.0 mi WSW 6.9 mph - N/A   Clear
5:15 PM 55.0 °F - 20.7 °F 26% 30.11 in 10.0 mi WSW 3.5 mph - N/A   Clear
5:35 PM 54.9 °F - 21.4 °F 27% 30.11 in 10.0 mi West 6.9 mph - N/A   Clear
5:55 PM 54.0 °F - 21.0 °F 28% 30.11 in 10.0 mi WSW 4.6 mph - N/A   Clear
6:15 PM 52.7 °F - 20.7 °F 29% 30.10 in 10.0 mi SW 4.6 mph - N/A   Clear
6:35 PM 51.1 °F - 20.3 °F 30% 30.10 in 10.0 mi Calm Calm - N/A   Clear
6:55 PM 49.6 °F - 20.7 °F 32% 30.10 in 10.0 mi SW 3.5 mph - N/A   Clear
7:15 PM 47.5 °F - 19.9 °F 34% 30.10 in 10.0 mi South 3.5 mph - N/A   Clear
7:55 PM 45.0 °F 42.6 °F 19.4 °F 36% 30.10 in 10.0 mi South 4.6 mph - N/A   Clear
8:15 PM 43.7 °F 40.3 °F 19.9 °F 39% 30.10 in 10.0 mi South 5.8 mph - N/A   Clear
8:35 PM 42.8 °F 40.1 °F 19.8 °F 40% 30.10 in 10.0 mi South 4.6 mph - N/A   Clear
8:55 PM 41.9 °F 38.2 °F 19.4 °F 41% 30.10 in 10.0 mi South 5.8 mph - N/A   Clear
9:15 PM 40.8 °F 36.9 °F 20.3 °F 44% 30.10 in 10.0 mi South 5.8 mph - N/A   Clear
9:35 PM 41.4 °F 37.6 °F 21.0 °F 44% 30.10 in 10.0 mi South 5.8 mph - N/A   Clear
9:55 PM 41.2 °F 37.3 °F 21.6 °F 46% 30.10 in 10.0 mi South 5.8 mph - N/A   Clear
10:15 PM 41.5 °F 37.8 °F 21.9 °F 46% 30.10 in 10.0 mi South 5.8 mph - N/A   Clear
10:35 PM 40.3 °F 36.3 °F 21.9 °F 48% 30.10 in 10.0 mi South 5.8 mph - N/A   Clear
10:55 PM 39.2 °F 35.9 °F 22.1 °F 50% 30.09 in 10.0 mi South 4.6 mph - N/A   Clear
11:15 PM 38.7 °F 35.2 °F 22.8 °F 53% 30.09 in 10.0 mi South 4.6 mph - N/A   Clear
11:35 PM 39.0 °F 34.8 °F 23.0 °F 53% 30.09 in 10.0 mi South 5.8 mph - N/A   Clear
11:55 PM 38.5 °F 35.0 °F 23.2 °F 54% 30.09 in 10.0 mi South 4.6 mph - N/A   Clear